createdAt,value
2023-04-22T00:00:54.922Z,14.70
2023-04-22T00:03:23.477Z,15.07
2023-04-22T00:05:52.012Z,16.00
2023-04-22T00:08:20.343Z,16.00
2023-04-22T00:10:49.947Z,14.80
2023-04-22T00:13:18.150Z,15.23
2023-04-22T00:15:46.472Z,15.00
2023-04-22T00:18:15.362Z,15.10
2023-04-22T00:20:44.328Z,14.80
2023-04-22T00:23:13.272Z,14.40
2023-04-22T00:25:41.956Z,15.30
2023-04-22T00:28:11.635Z,15.40
2023-04-22T00:30:39.825Z,14.80
2023-04-22T00:33:08.103Z,14.80
2023-04-22T00:35:36.292Z,14.67
2023-04-22T00:38:04.467Z,15.50
2023-04-22T00:40:32.680Z,14.33
2023-04-22T00:43:01.609Z,14.67
2023-04-22T00:45:32.461Z,14.30
2023-04-22T00:48:01.805Z,14.70
2023-04-22T00:50:29.976Z,14.47
2023-04-22T00:52:58.042Z,14.60
2023-04-22T00:55:26.592Z,15.70
2023-04-22T00:57:56.738Z,15.00
2023-04-22T01:00:27.344Z,14.73
2023-04-22T01:02:58.015Z,14.50
2023-04-22T01:05:26.872Z,14.20
2023-04-22T01:07:55.056Z,14.60
2023-04-22T01:10:23.443Z,15.00
2023-04-22T01:12:51.638Z,15.17
2023-04-22T01:15:19.907Z,15.47
2023-04-22T01:17:48.940Z,14.90
2023-04-22T01:20:19.575Z,15.20
2023-04-22T01:22:49.838Z,14.50
2023-04-22T01:25:19.562Z,15.10
2023-04-22T01:27:47.856Z,15.40
2023-04-22T01:30:16.660Z,15.00
2023-04-22T01:32:45.072Z,15.03
2023-04-22T01:35:13.463Z,15.10
2023-04-22T01:37:41.855Z,14.77
2023-04-22T01:40:11.406Z,14.43
2023-04-22T01:42:41.067Z,14.50
2023-04-22T01:45:10.182Z,13.70
2023-04-22T01:47:38.386Z,13.90
2023-04-22T01:50:07.449Z,14.50
2023-04-22T01:52:36.649Z,14.47
2023-04-22T01:55:04.937Z,14.33
2023-04-22T01:57:33.299Z,14.80
2023-04-22T02:00:03.096Z,14.67
2023-04-22T02:02:31.366Z,14.97
2023-04-22T02:04:59.601Z,14.57
2023-04-22T02:07:27.762Z,15.03
2023-04-22T02:09:55.805Z,15.57
2023-04-22T02:12:24.008Z,15.87
2023-04-22T02:14:52.162Z,15.70
2023-04-22T02:18:04.990Z,15.80
2023-04-22T02:20:34.758Z,14.70
2023-04-22T02:23:03.189Z,16.63
2023-04-22T02:25:32.013Z,14.57
2023-04-22T02:28:00.177Z,15.30
2023-04-22T02:30:28.418Z,14.27
2023-04-22T02:32:57.032Z,14.70
2023-04-22T02:35:25.245Z,14.50
2023-04-22T02:37:54.677Z,14.50
2023-04-22T02:40:22.872Z,14.90
2023-04-22T02:42:51.175Z,14.43
2023-04-22T02:45:19.497Z,14.40
2023-04-22T02:47:47.718Z,14.70
2023-04-22T02:50:16.027Z,15.03
2023-04-22T02:52:44.170Z,14.80
2023-04-22T02:55:22.086Z,14.83
2023-04-22T02:57:50.701Z,14.90
2023-04-22T03:00:19.037Z,15.07
2023-04-22T03:02:47.196Z,14.80
2023-04-22T03:05:15.982Z,14.70
2023-04-22T03:07:44.627Z,14.67
2023-04-22T03:10:14.100Z,14.73
2023-04-22T03:12:42.601Z,14.80
2023-04-22T03:15:11.307Z,15.37
2023-04-22T03:17:39.471Z,14.37
2023-04-22T03:20:08.779Z,14.33
2023-04-22T03:22:36.888Z,14.87
2023-04-22T03:25:06.390Z,15.27
2023-04-22T03:27:35.844Z,14.47
2023-04-22T03:30:04.370Z,14.07
2023-04-22T03:32:32.622Z,14.63
2023-04-22T03:35:01.266Z,14.73
2023-04-22T03:37:29.639Z,14.40
2023-04-22T03:39:57.681Z,15.07
2023-04-22T03:42:25.873Z,14.80
2023-04-22T03:44:55.398Z,14.40
2023-04-22T03:47:23.599Z,14.57
2023-04-22T03:49:51.715Z,15.20
2023-04-22T03:52:19.779Z,15.63
2023-04-22T03:54:47.865Z,15.40
2023-04-22T03:57:16.166Z,14.33
2023-04-22T03:59:44.284Z,14.63
2023-04-22T04:02:14.106Z,14.73
2023-04-22T04:04:42.617Z,13.60
2023-04-22T04:07:10.994Z,13.83
2023-04-22T04:09:39.455Z,14.43
2023-04-22T04:12:08.093Z,14.53
2023-04-22T04:14:36.356Z,13.87
2023-04-22T04:17:04.765Z,13.67
2023-04-22T04:19:34.647Z,13.77
2023-04-22T04:22:02.975Z,14.43
2023-04-22T04:24:31.086Z,13.77
2023-04-22T04:26:59.255Z,13.70
2023-04-22T04:29:27.439Z,13.90
2023-04-22T04:31:56.858Z,13.73
2023-04-22T04:34:25.669Z,13.87
2023-04-22T04:36:56.201Z,14.03
2023-04-22T04:39:26.479Z,14.03
2023-04-22T04:41:58.574Z,13.80
2023-04-22T04:44:27.532Z,14.07
2023-04-22T04:46:56.392Z,13.57
2023-04-22T04:49:24.790Z,13.97
2023-04-22T04:51:54.401Z,14.57
2023-04-22T04:54:22.489Z,13.83
2023-04-22T04:56:50.906Z,13.90
2023-04-22T04:59:19.150Z,14.37
2023-04-22T05:01:47.449Z,14.23
2023-04-22T05:04:15.841Z,15.03
2023-04-22T05:06:44.318Z,15.20
2023-04-22T05:09:13.956Z,15.20
2023-04-22T05:11:42.211Z,14.40
2023-04-22T05:14:10.511Z,15.40
2023-04-22T05:16:38.800Z,14.50
2023-04-22T05:19:06.944Z,15.07
2023-04-22T05:21:35.171Z,15.07
2023-04-22T05:24:03.334Z,14.83
2023-04-22T05:26:32.929Z,14.60
2023-04-22T05:29:01.045Z,14.40
2023-04-22T05:31:29.445Z,15.10
2023-04-22T05:33:57.685Z,15.10
2023-04-22T05:36:30.584Z,14.83
2023-04-22T05:38:59.514Z,14.77
2023-04-22T05:41:27.669Z,15.10
2023-04-22T05:43:57.299Z,15.23
2023-04-22T05:46:25.682Z,14.73
2023-04-22T05:48:54.887Z,15.37
2023-04-22T05:51:23.592Z,15.53
2023-04-22T05:53:51.782Z,15.43
2023-04-22T05:56:21.108Z,15.43
2023-04-22T05:58:49.317Z,15.70
2023-04-22T06:01:18.951Z,16.70
2023-04-22T06:03:47.471Z,15.70
2023-04-22T06:06:15.950Z,15.67
2023-04-22T06:08:44.128Z,16.17
2023-04-22T06:11:12.259Z,16.47
2023-04-22T06:13:40.419Z,16.75
2023-04-22T06:18:43.607Z,17.80
2023-04-22T06:21:12.138Z,17.53
2023-04-22T06:23:40.698Z,17.60
2023-04-22T06:26:09.184Z,17.40
2023-04-22T06:28:37.439Z,18.20
2023-04-22T06:31:05.641Z,18.20
2023-04-22T06:33:33.802Z,17.20
2023-04-22T06:36:04.951Z,17.63
2023-04-22T06:38:33.067Z,17.50
2023-04-22T06:41:01.247Z,17.80
2023-04-22T06:43:29.345Z,17.50
2023-04-22T06:45:57.421Z,17.20
2023-04-22T06:48:27.352Z,17.70
2023-04-22T06:50:55.418Z,17.50
2023-04-22T06:53:24.857Z,17.90
2023-04-22T06:55:53.615Z,17.20
2023-04-22T06:58:22.588Z,17.70
2023-04-22T07:00:50.685Z,17.10
2023-04-22T07:03:18.846Z,17.10
2023-04-22T07:05:48.678Z,17.93
2023-04-22T07:08:17.068Z,17.63
2023-04-22T07:10:46.550Z,17.30
2023-04-22T07:13:14.640Z,17.80
2023-04-22T07:15:42.756Z,18.00
2023-04-22T07:18:11.022Z,18.50
2023-04-22T07:20:39.170Z,20.10
2023-04-22T07:23:07.298Z,21.83
2023-04-22T07:25:35.584Z,19.73
2023-04-22T07:28:05.201Z,23.92
2023-04-22T07:30:33.418Z,18.50
2023-04-22T07:33:01.615Z,18.77
2023-04-22T07:35:29.896Z,17.50
2023-04-22T07:37:58.078Z,16.93
2023-04-22T07:40:26.231Z,17.47
2023-04-22T07:42:54.416Z,17.37
2023-04-22T07:45:24.188Z,16.97
2023-04-22T07:47:52.510Z,17.70
2023-04-22T07:50:20.612Z,18.20
2023-04-22T07:52:48.792Z,17.50
2023-04-22T07:55:17.310Z,16.63
2023-04-22T07:57:46.424Z,17.30
2023-04-22T08:00:15.730Z,16.33
2023-04-22T08:02:46.709Z,16.30
2023-04-22T08:05:15.026Z,16.47
2023-04-22T08:07:43.772Z,17.60
2023-04-22T08:10:12.207Z,16.40
2023-04-22T08:12:40.464Z,17.00
2023-04-22T08:15:09.500Z,16.60
2023-04-22T08:17:37.764Z,17.00
2023-04-22T08:20:08.797Z,16.10
2023-04-22T08:22:37.020Z,17.43
2023-04-22T08:25:06.850Z,16.70
2023-04-22T08:27:35.165Z,16.60
2023-04-22T08:30:03.608Z,16.70
2023-04-22T08:32:31.848Z,17.53
2023-04-22T08:35:04.755Z,17.10
2023-04-22T08:37:35.924Z,17.10
2023-04-22T08:40:05.218Z,16.75
2023-04-22T08:42:33.952Z,17.50
2023-04-22T08:45:04.072Z,16.57
2023-04-22T08:47:34.043Z,16.27
2023-04-22T08:50:05.447Z,16.00
2023-04-22T08:52:35.326Z,15.87
2023-04-22T08:55:04.204Z,15.67
2023-04-22T08:57:33.209Z,15.57
2023-04-22T09:00:01.799Z,15.47
2023-04-22T09:02:33.133Z,14.00
2023-04-22T09:05:03.772Z,13.70
2023-04-22T09:07:35.532Z,14.30
2023-04-22T09:10:04.493Z,14.10
2023-04-22T09:12:32.681Z,14.27
2023-04-22T09:15:00.909Z,14.17
2023-04-22T09:17:33.413Z,14.20
2023-04-22T09:20:03.376Z,14.50
2023-04-22T09:22:41.222Z,14.07
2023-04-22T09:25:17.606Z,14.70
2023-04-22T09:27:51.011Z,14.43
2023-04-22T09:30:20.680Z,14.30
2023-04-22T09:32:56.125Z,13.97
2023-04-22T09:35:31.731Z,13.87
2023-04-22T09:38:03.104Z,13.60
2023-04-22T09:40:32.472Z,13.60
2023-04-22T09:43:03.672Z,12.80
2023-04-22T09:45:33.635Z,12.50
2023-04-22T09:48:04.605Z,12.23
2023-04-22T09:50:32.909Z,12.30
2023-04-22T09:53:04.748Z,12.10
2023-04-22T09:55:35.656Z,12.13
2023-04-22T09:58:09.294Z,11.83
2023-04-22T10:00:41.930Z,10.93
2023-04-22T10:03:11.220Z,11.13
2023-04-22T10:05:41.254Z,11.00
2023-04-22T10:08:12.042Z,11.13
2023-04-22T10:10:41.003Z,11.53
2023-04-22T10:13:09.743Z,11.60
2023-04-22T10:15:41.439Z,11.90
2023-04-22T10:18:13.070Z,14.30
2023-04-22T10:20:43.302Z,11.70
2023-04-22T10:23:22.831Z,11.23
2023-04-22T10:25:54.229Z,11.00
2023-04-22T10:28:24.600Z,10.30
2023-04-22T10:30:52.904Z,10.50
2023-04-22T10:33:40.183Z,10.10
2023-04-22T10:36:10.727Z,10.00
2023-04-22T10:38:42.015Z,9.83
2023-04-22T10:41:15.729Z,10.40
2023-04-22T10:43:45.496Z,10.50
2023-04-22T10:46:49.306Z,10.20
2023-04-22T10:49:21.790Z,9.53
2023-04-22T10:51:51.509Z,9.80
2023-04-22T10:54:59.698Z,9.80
2023-04-22T10:57:41.556Z,10.00
2023-04-22T11:00:22.531Z,9.67
2023-04-22T11:02:54.335Z,9.60
2023-04-22T11:05:27.162Z,9.20
2023-04-22T11:07:57.100Z,8.87
2023-04-22T11:10:43.009Z,9.30
2023-04-22T11:13:14.029Z,9.02
2023-04-22T11:15:44.071Z,9.17
2023-04-22T11:18:18.558Z,9.43
2023-04-22T11:20:48.496Z,9.90
2023-04-22T11:23:23.119Z,10.17
2023-04-22T11:25:57.637Z,10.40
2023-04-22T11:28:25.884Z,10.80
2023-04-22T11:30:54.392Z,10.73
2023-04-22T11:33:22.670Z,10.63
2023-04-22T11:35:51.892Z,10.60
2023-04-22T11:38:20.097Z,10.23
2023-04-22T11:40:48.900Z,10.77
2023-04-22T11:43:19.661Z,11.13
2023-04-22T11:45:47.868Z,11.90
2023-04-22T11:48:16.684Z,11.40
2023-04-22T11:50:45.577Z,11.10
2023-04-22T11:53:17.987Z,11.83
2023-04-22T11:55:48.021Z,11.60
2023-04-22T11:58:19.951Z,11.53
2023-04-22T12:00:49.301Z,12.10
2023-04-22T12:03:19.814Z,11.77
2023-04-22T12:05:51.247Z,11.37
2023-04-22T12:08:21.418Z,11.53
2023-04-22T12:10:52.808Z,12.20
2023-04-22T12:13:23.557Z,11.43
2023-04-22T12:15:56.420Z,11.20
2023-04-22T12:18:31.935Z,10.90
2023-04-22T12:21:09.526Z,11.10
2023-04-22T12:23:43.709Z,11.60
2023-04-22T12:26:12.239Z,11.23
2023-04-22T12:28:42.480Z,11.10
2023-04-22T12:31:11.528Z,10.23
2023-04-22T12:33:40.127Z,9.93
2023-04-22T12:36:09.024Z,10.10
2023-04-22T12:38:37.381Z,10.53
2023-04-22T12:41:06.399Z,9.87
2023-04-22T12:43:36.952Z,10.00
2023-04-22T12:46:08.268Z,10.60
2023-04-22T12:48:37.414Z,10.03
2023-04-22T12:51:06.457Z,10.23
2023-04-22T12:53:34.817Z,10.50
2023-04-22T12:56:02.987Z,10.17
2023-04-22T12:58:31.132Z,10.80
2023-04-22T13:00:59.297Z,10.97
2023-04-22T13:03:29.040Z,10.07
2023-04-22T13:05:57.247Z,10.70
2023-04-22T13:08:25.338Z,10.60
2023-04-22T13:10:53.681Z,10.53
2023-04-22T13:13:21.936Z,10.77
2023-04-22T13:15:53.151Z,10.17
2023-04-22T13:18:22.477Z,10.30
2023-04-22T13:20:52.217Z,10.20
2023-04-22T13:23:22.194Z,10.40
2023-04-22T13:25:50.972Z,10.60
2023-04-22T13:28:19.202Z,11.07
2023-04-22T13:30:47.404Z,11.00
2023-04-22T13:33:15.622Z,10.87
2023-04-22T13:35:43.972Z,11.33
2023-04-22T13:38:13.638Z,11.50
2023-04-22T13:40:41.717Z,11.10
2023-04-22T13:43:10.418Z,11.80
2023-04-22T13:45:38.544Z,11.70
2023-04-22T13:48:06.802Z,11.60
2023-04-22T13:50:35.232Z,11.03
2023-04-22T13:53:04.878Z,10.67
2023-04-22T13:55:34.750Z,11.00
2023-04-22T13:58:02.838Z,11.30
2023-04-22T14:00:31.149Z,10.73
2023-04-22T14:02:59.380Z,11.73
2023-04-22T14:05:27.793Z,11.53
2023-04-22T14:07:57.431Z,10.97
2023-04-22T14:10:27.897Z,11.10
2023-04-22T14:12:58.213Z,11.20
2023-04-22T14:15:26.496Z,11.67
2023-04-22T14:17:54.971Z,11.53
2023-04-22T14:20:25.248Z,11.80
2023-04-22T14:22:53.389Z,11.20
2023-04-22T14:25:21.544Z,11.17
2023-04-22T14:27:49.593Z,10.97
2023-04-22T14:30:20.374Z,11.27
2023-04-22T14:32:48.614Z,11.30
2023-04-22T14:35:16.933Z,10.87
2023-04-22T14:37:45.141Z,10.80
2023-04-22T14:40:13.671Z,11.10
2023-04-22T14:42:41.915Z,11.47
2023-04-22T14:45:11.023Z,10.77
2023-04-22T14:47:40.590Z,11.20
2023-04-22T14:50:09.430Z,11.23
2023-04-22T14:52:37.587Z,11.20
2023-04-22T14:55:19.545Z,11.70
2023-04-22T14:57:51.462Z,11.77
2023-04-22T15:00:19.932Z,11.33
2023-04-22T15:02:49.948Z,11.50
2023-04-22T15:05:18.267Z,11.00
2023-04-22T15:07:46.404Z,10.80
2023-04-22T15:10:15.107Z,10.80
2023-04-22T15:12:43.278Z,11.13
2023-04-22T15:15:13.953Z,11.13
2023-04-22T15:17:42.561Z,11.97
2023-04-22T15:20:13.509Z,10.87
2023-04-22T15:22:42.310Z,11.30
2023-04-22T15:25:11.519Z,11.17
2023-04-22T15:27:40.091Z,10.87
2023-04-22T15:30:09.205Z,11.10
2023-04-22T15:32:39.168Z,12.23
2023-04-22T15:35:08.667Z,10.83
2023-04-22T15:37:38.200Z,10.63
2023-04-22T15:40:07.938Z,10.10
2023-04-22T15:42:36.069Z,9.93
2023-04-22T15:45:04.463Z,10.50
2023-04-22T15:47:32.708Z,10.83
2023-04-22T15:50:06.465Z,10.60
2023-04-22T15:52:35.206Z,9.27
2023-04-22T15:55:05.076Z,9.30
2023-04-22T15:57:35.011Z,9.90
2023-04-22T16:00:11.988Z,11.33
2023-04-22T16:02:42.283Z,10.93
2023-04-22T16:05:14.091Z,11.03
2023-04-22T16:07:42.336Z,13.40
2023-04-22T16:10:12.522Z,13.17
2023-04-22T16:12:40.604Z,10.80
2023-04-22T16:15:10.468Z,9.80
2023-04-22T16:17:38.777Z,10.00
2023-04-22T16:20:08.620Z,11.63
2023-04-22T16:22:37.171Z,9.83
2023-04-22T16:25:06.046Z,10.00
2023-04-22T16:27:35.513Z,10.90
2023-04-22T16:30:03.609Z,9.80
2023-04-22T16:32:31.906Z,9.70
2023-04-22T16:35:00.176Z,9.70
2023-04-22T16:37:28.392Z,10.00
2023-04-22T16:39:56.703Z,9.73
2023-04-22T16:42:24.974Z,9.50
2023-04-22T16:44:54.479Z,9.40
2023-04-22T16:47:22.713Z,9.00
2023-04-22T16:49:51.038Z,9.30
2023-04-22T16:52:19.193Z,9.73
2023-04-22T16:54:47.375Z,9.50
2023-04-22T16:57:16.033Z,9.50
2023-04-22T16:59:44.210Z,9.53
2023-04-22T17:02:13.869Z,9.70
2023-04-22T17:04:41.979Z,10.13
2023-04-22T17:07:10.828Z,10.43
2023-04-22T17:09:39.257Z,9.83
2023-04-22T17:12:08.019Z,9.73
2023-04-22T17:14:36.283Z,10.07
2023-04-22T17:17:04.556Z,9.87
2023-04-22T17:19:34.158Z,9.40
2023-04-22T17:22:02.608Z,9.90
2023-04-22T17:24:30.914Z,10.03
2023-04-22T17:26:59.133Z,10.60
2023-04-22T17:29:27.641Z,9.97
2023-04-22T17:31:56.197Z,10.20
2023-04-22T17:34:24.561Z,10.00
2023-04-22T17:36:54.161Z,10.43
2023-04-22T17:39:22.376Z,9.90
2023-04-22T17:41:50.991Z,9.70
2023-04-22T17:44:19.216Z,10.40
2023-04-22T17:46:47.382Z,10.63
2023-04-22T17:49:15.524Z,11.37
2023-04-22T17:51:44.074Z,10.97
2023-04-22T17:54:13.759Z,11.60
2023-04-22T17:56:41.858Z,11.20
2023-04-22T17:59:11.321Z,11.40
2023-04-22T18:01:39.965Z,11.47
2023-04-22T18:04:08.340Z,11.90
2023-04-22T18:06:36.745Z,11.63
2023-04-22T18:09:05.129Z,12.50
2023-04-22T18:11:34.983Z,12.40
2023-04-22T18:14:03.260Z,12.27
2023-04-22T18:16:32.362Z,12.20
2023-04-22T18:19:02.377Z,12.20
2023-04-22T18:21:31.497Z,12.60
2023-04-22T18:23:59.752Z,12.77
2023-04-22T18:26:28.095Z,12.33
2023-04-22T18:28:57.659Z,12.57
2023-04-22T18:31:25.919Z,13.13
2023-04-22T18:33:54.271Z,12.67
2023-04-22T18:36:22.481Z,12.80
2023-04-22T18:38:50.566Z,12.30
2023-04-22T18:41:18.756Z,12.50
2023-04-22T18:43:48.479Z,12.50
2023-04-22T18:46:17.994Z,12.77
2023-04-22T18:48:46.130Z,13.20
2023-04-22T18:51:14.498Z,12.33
2023-04-22T18:53:42.668Z,12.80
2023-04-22T18:56:10.793Z,13.03
2023-04-22T18:58:38.872Z,12.70
2023-04-22T19:01:07.130Z,12.67
2023-04-22T19:03:36.897Z,12.80
2023-04-22T19:06:05.520Z,12.80
2023-04-22T19:08:33.739Z,12.90
2023-04-22T19:11:01.994Z,13.00
2023-04-22T19:13:30.460Z,12.47
2023-04-22T19:15:59.006Z,13.10
2023-04-22T19:18:27.362Z,12.67
2023-04-22T19:20:56.796Z,12.50
2023-04-22T19:23:25.095Z,12.90
2023-04-22T19:25:53.185Z,12.33
2023-04-22T19:28:21.336Z,12.43
2023-04-22T19:30:49.629Z,12.40
2023-04-22T19:33:17.999Z,12.50
2023-04-22T19:35:46.530Z,12.57
2023-04-22T19:38:19.205Z,12.40
2023-04-22T19:40:47.496Z,12.53
2023-04-22T19:43:17.140Z,12.73
2023-04-22T19:45:45.449Z,13.30
2023-04-22T19:48:13.985Z,12.70
2023-04-22T19:50:44.877Z,12.83
2023-04-22T19:53:13.820Z,12.70
2023-04-22T19:55:44.410Z,13.07
2023-04-22T19:58:13.035Z,13.67
2023-04-22T20:00:42.751Z,12.30
2023-04-22T20:03:13.146Z,12.10
2023-04-22T20:05:42.463Z,12.80
2023-04-22T20:08:11.391Z,11.50
2023-04-22T20:10:39.656Z,11.63
2023-04-22T20:13:09.713Z,11.60
2023-04-22T20:15:38.119Z,11.33
2023-04-22T20:18:06.889Z,11.80
2023-04-22T20:20:35.353Z,12.40
2023-04-22T20:23:10.372Z,12.50
2023-04-22T20:25:40.643Z,12.40
2023-04-22T20:28:10.935Z,12.67
2023-04-22T20:30:39.742Z,12.80
2023-04-22T20:33:10.825Z,11.43
2023-04-22T20:35:40.345Z,14.10
2023-04-22T20:38:12.455Z,12.93
2023-04-22T20:40:41.472Z,11.20
2023-04-22T20:43:11.290Z,11.70
2023-04-22T20:45:39.548Z,11.70
2023-04-22T20:48:08.240Z,11.63
2023-04-22T20:50:36.627Z,11.37
2023-04-22T20:53:05.231Z,10.97
2023-04-22T20:55:36.867Z,10.90
2023-04-22T20:58:05.481Z,10.50
2023-04-22T21:00:35.479Z,11.00
2023-04-22T21:03:05.549Z,10.30
2023-04-22T21:05:40.782Z,10.40
2023-04-22T21:08:22.844Z,11.13
2023-04-22T21:10:53.659Z,10.57
2023-04-22T21:13:22.716Z,11.50
2023-04-22T21:15:57.401Z,10.70
2023-04-22T21:18:27.483Z,10.97
2023-04-22T21:20:58.170Z,10.97
2023-04-22T21:23:26.805Z,11.20
2023-04-22T21:25:56.466Z,10.70
2023-04-22T21:28:25.207Z,10.97
2023-04-22T21:30:55.742Z,11.30
2023-04-22T21:33:25.143Z,10.60
2023-04-22T21:35:53.540Z,10.97
2023-04-22T21:38:21.860Z,11.10
2023-04-22T21:40:50.102Z,12.40
2023-04-22T21:43:18.263Z,11.10
2023-04-22T21:45:46.403Z,11.20
2023-04-22T21:48:15.919Z,11.03
2023-04-22T21:50:44.092Z,11.20
2023-04-22T21:53:12.397Z,10.90
2023-04-22T21:55:41.126Z,11.47
2023-04-22T21:58:09.245Z,11.40
2023-04-22T22:00:37.863Z,10.77
2023-04-22T22:03:06.366Z,11.37
2023-04-22T22:05:36.693Z,11.60
2023-04-22T22:08:05.037Z,11.73
2023-04-22T22:10:33.168Z,11.50
2023-04-22T22:13:01.473Z,11.03
2023-04-22T22:15:29.718Z,11.67
2023-04-22T22:17:58.994Z,11.40
2023-04-22T22:20:27.301Z,11.53
2023-04-22T22:22:56.983Z,11.50
2023-04-22T22:25:25.230Z,11.67
2023-04-22T22:27:53.390Z,11.80
2023-04-22T22:30:22.921Z,11.63
2023-04-22T22:32:51.085Z,11.77
2023-04-22T22:35:19.403Z,12.50
2023-04-22T22:37:47.544Z,11.93
2023-04-22T22:40:17.091Z,11.60
2023-04-22T22:42:45.319Z,11.60
2023-04-22T22:45:13.510Z,11.80
2023-04-22T22:47:41.803Z,11.33
2023-04-22T22:50:11.506Z,12.53
2023-04-22T22:52:39.798Z,11.57
2023-04-22T22:55:08.466Z,11.70
2023-04-22T22:57:37.958Z,11.50
2023-04-22T23:00:09.259Z,11.60
2023-04-22T23:02:37.656Z,11.13
2023-04-22T23:05:07.299Z,11.40
2023-04-22T23:07:36.427Z,10.90
2023-04-22T23:10:04.807Z,11.63
2023-04-22T23:12:33.130Z,11.10
2023-04-22T23:15:02.622Z,11.70
2023-04-22T23:17:30.851Z,11.77
2023-04-22T23:20:01.264Z,12.40
2023-04-22T23:22:30.867Z,12.63
2023-04-22T23:24:59.449Z,11.40
2023-04-22T23:27:28.109Z,12.03
2023-04-22T23:29:56.603Z,11.93
2023-04-22T23:32:27.544Z,12.40
2023-04-22T23:34:57.901Z,12.60
2023-04-22T23:37:28.900Z,12.10
2023-04-22T23:39:57.131Z,11.50
2023-04-22T23:42:25.263Z,13.40
2023-04-22T23:44:53.853Z,12.10
2023-04-22T23:47:21.997Z,12.20
2023-04-22T23:49:51.665Z,12.63
2023-04-22T23:52:20.353Z,12.10
2023-04-22T23:54:48.936Z,11.90
2023-04-22T23:57:18.003Z,11.83
2023-04-22T23:59:46.717Z,11.67
